sensor_id;sensor_type;location;lat;lon;timestamp;temperature;humidity
30206;DHT22;17010;51.306;3.150;2022-07-23T00:00:09;16.70;99.90
30206;DHT22;17010;51.306;3.150;2022-07-23T00:02:36;16.70;99.90
30206;DHT22;17010;51.306;3.150;2022-07-23T00:05:02;16.70;99.90
30206;DHT22;17010;51.306;3.150;2022-07-23T00:07:32;16.70;99.90
30206;DHT22;17010;51.306;3.150;2022-07-23T00:09:58;16.70;99.90
30206;DHT22;17010;51.306;3.150;2022-07-23T00:12:24;16.60;99.90
30206;DHT22;17010;51.306;3.150;2022-07-23T00:14:53;16.60;99.90
30206;DHT22;17010;51.306;3.150;2022-07-23T00:17:19;16.70;99.90
30206;DHT22;17010;51.306;3.150;2022-07-23T00:19:46;16.60;99.90
30206;DHT22;17010;51.306;3.150;2022-07-23T00:22:12;16.60;99.90
30206;DHT22;17010;51.306;3.150;2022-07-23T00:24:38;16.60;99.90
30206;DHT22;17010;51.306;3.150;2022-07-23T00:27:04;16.60;99.90
30206;DHT22;17010;51.306;3.150;2022-07-23T00:29:31;16.60;99.90
30206;DHT22;17010;51.306;3.150;2022-07-23T00:31:57;16.60;99.90
30206;DHT22;17010;51.306;3.150;2022-07-23T00:34:26;16.60;99.90
30206;DHT22;17010;51.306;3.150;2022-07-23T00:36:52;16.60;99.90
30206;DHT22;17010;51.306;3.150;2022-07-23T00:39:21;16.50;99.90
30206;DHT22;17010;51.306;3.150;2022-07-23T00:41:49;16.50;99.90
30206;DHT22;17010;51.306;3.150;2022-07-23T00:44:25;16.50;99.90
30206;DHT22;17010;51.306;3.150;2022-07-23T00:46:54;16.50;99.90
30206;DHT22;17010;51.306;3.150;2022-07-23T00:49:21;16.50;99.90
30206;DHT22;17010;51.306;3.150;2022-07-23T00:51:50;16.50;99.90
30206;DHT22;17010;51.306;3.150;2022-07-23T00:54:17;16.50;99.90
30206;DHT22;17010;51.306;3.150;2022-07-23T00:56:45;16.50;99.90
30206;DHT22;17010;51.306;3.150;2022-07-23T00:59:13;16.40;99.90
30206;DHT22;17010;51.306;3.150;2022-07-23T01:01:39;16.50;99.90
30206;DHT22;17010;51.306;3.150;2022-07-23T01:04:06;16.40;99.90
30206;DHT22;17010;51.306;3.150;2022-07-23T01:06:37;16.40;99.90
30206;DHT22;17010;51.306;3.150;2022-07-23T01:09:06;16.40;99.90
30206;DHT22;17010;51.306;3.150;2022-07-23T01:11:34;16.40;99.90
30206;DHT22;17010;51.306;3.150;2022-07-23T01:14:17;16.40;99.90
30206;DHT22;17010;51.306;3.150;2022-07-23T01:16:44;16.30;99.90
30206;DHT22;17010;51.306;3.150;2022-07-23T01:19:11;16.30;99.90
30206;DHT22;17010;51.306;3.150;2022-07-23T01:21:43;16.30;99.90
30206;DHT22;17010;51.306;3.150;2022-07-23T01:24:11;16.30;99.90
30206;DHT22;17010;51.306;3.150;2022-07-23T01:26:40;16.30;99.90
30206;DHT22;17010;51.306;3.150;2022-07-23T01:29:06;16.30;99.90
30206;DHT22;17010;51.306;3.150;2022-07-23T01:31:33;16.30;99.90
30206;DHT22;17010;51.306;3.150;2022-07-23T01:33:59;16.20;99.90
30206;DHT22;17010;51.306;3.150;2022-07-23T01:36:26;16.20;99.90
30206;DHT22;17010;51.306;3.150;2022-07-23T01:38:53;16.20;99.90
30206;DHT22;17010;51.306;3.150;2022-07-23T01:41:19;16.20;99.90
30206;DHT22;17010;51.306;3.150;2022-07-23T01:43:46;16.10;99.90
30206;DHT22;17010;51.306;3.150;2022-07-23T01:46:17;16.10;99.90
30206;DHT22;17010;51.306;3.150;2022-07-23T01:48:43;16.20;99.90
30206;DHT22;17010;51.306;3.150;2022-07-23T01:51:09;16.10;99.90
30206;DHT22;17010;51.306;3.150;2022-07-23T01:53:38;16.10;99.90
30206;DHT22;17010;51.306;3.150;2022-07-23T01:56:05;16.10;99.90
30206;DHT22;17010;51.306;3.150;2022-07-23T01:58:31;16.10;99.90
30206;DHT22;17010;51.306;3.150;2022-07-23T02:00:58;16.10;99.90
30206;DHT22;17010;51.306;3.150;2022-07-23T02:03:25;16.00;99.90
30206;DHT22;17010;51.306;3.150;2022-07-23T02:05:53;16.00;99.90
30206;DHT22;17010;51.306;3.150;2022-07-23T02:08:21;16.00;99.90
30206;DHT22;17010;51.306;3.150;2022-07-23T02:10:47;15.90;99.90
30206;DHT22;17010;51.306;3.150;2022-07-23T02:13:17;15.90;99.90
30206;DHT22;17010;51.306;3.150;2022-07-23T02:15:43;15.90;99.90
30206;DHT22;17010;51.306;3.150;2022-07-23T02:18:10;15.90;99.90
30206;DHT22;17010;51.306;3.150;2022-07-23T02:20:36;15.90;99.90
30206;DHT22;17010;51.306;3.150;2022-07-23T02:23:04;15.80;99.90
30206;DHT22;17010;51.306;3.150;2022-07-23T02:25:34;15.80;99.90
30206;DHT22;17010;51.306;3.150;2022-07-23T02:28:00;15.80;99.90
30206;DHT22;17010;51.306;3.150;2022-07-23T02:30:27;15.80;99.90
30206;DHT22;17010;51.306;3.150;2022-07-23T02:32:53;15.80;99.90
30206;DHT22;17010;51.306;3.150;2022-07-23T02:35:20;15.80;99.90
30206;DHT22;17010;51.306;3.150;2022-07-23T02:37:46;15.80;99.90
30206;DHT22;17010;51.306;3.150;2022-07-23T02:40:12;15.70;99.90
30206;DHT22;17010;51.306;3.150;2022-07-23T02:42:39;15.70;99.90
30206;DHT22;17010;51.306;3.150;2022-07-23T02:45:06;15.70;99.90
30206;DHT22;17010;51.306;3.150;2022-07-23T02:47:33;15.70;99.90
30206;DHT22;17010;51.306;3.150;2022-07-23T02:49:59;15.70;99.90
30206;DHT22;17010;51.306;3.150;2022-07-23T02:52:25;15.70;99.90
30206;DHT22;17010;51.306;3.150;2022-07-23T02:54:51;15.70;99.90
30206;DHT22;17010;51.306;3.150;2022-07-23T02:57:20;15.80;99.90
30206;DHT22;17010;51.306;3.150;2022-07-23T02:59:50;15.80;99.90
30206;DHT22;17010;51.306;3.150;2022-07-23T03:02:19;15.80;99.90
30206;DHT22;17010;51.306;3.150;2022-07-23T03:04:45;15.90;99.90
30206;DHT22;17010;51.306;3.150;2022-07-23T03:07:11;15.90;99.90
30206;DHT22;17010;51.306;3.150;2022-07-23T03:09:40;15.90;99.90
30206;DHT22;17010;51.306;3.150;2022-07-23T03:12:08;15.90;99.90
30206;DHT22;17010;51.306;3.150;2022-07-23T03:14:34;16.00;99.90
30206;DHT22;17010;51.306;3.150;2022-07-23T03:17:01;16.00;99.90
30206;DHT22;17010;51.306;3.150;2022-07-23T03:19:32;16.00;99.90
30206;DHT22;17010;51.306;3.150;2022-07-23T03:21:58;16.00;99.90
30206;DHT22;17010;51.306;3.150;2022-07-23T03:24:24;16.10;99.90
30206;DHT22;17010;51.306;3.150;2022-07-23T03:27:10;16.10;99.90
30206;DHT22;17010;51.306;3.150;2022-07-23T03:29:37;16.10;99.90
30206;DHT22;17010;51.306;3.150;2022-07-23T03:32:04;16.10;99.90
30206;DHT22;17010;51.306;3.150;2022-07-23T03:34:30;16.10;99.90
30206;DHT22;17010;51.306;3.150;2022-07-23T03:36:57;16.10;99.90
30206;DHT22;17010;51.306;3.150;2022-07-23T03:39:25;16.00;99.90
30206;DHT22;17010;51.306;3.150;2022-07-23T03:41:54;16.00;99.90
30206;DHT22;17010;51.306;3.150;2022-07-23T03:44:20;15.90;99.90
30206;DHT22;17010;51.306;3.150;2022-07-23T03:46:47;15.90;99.90
30206;DHT22;17010;51.306;3.150;2022-07-23T03:49:15;15.90;99.90
30206;DHT22;17010;51.306;3.150;2022-07-23T03:51:44;15.80;99.90
30206;DHT22;17010;51.306;3.150;2022-07-23T03:54:13;15.80;99.90
30206;DHT22;17010;51.306;3.150;2022-07-23T03:56:41;15.80;99.90
30206;DHT22;17010;51.306;3.150;2022-07-23T03:59:09;15.80;99.90
30206;DHT22;17010;51.306;3.150;2022-07-23T04:01:35;15.90;99.90
30206;DHT22;17010;51.306;3.150;2022-07-23T04:04:02;15.90;99.90
30206;DHT22;17010;51.306;3.150;2022-07-23T04:06:31;15.80;99.90
30206;DHT22;17010;51.306;3.150;2022-07-23T04:08:58;15.80;99.90
30206;DHT22;17010;51.306;3.150;2022-07-23T04:11:25;15.80;99.90
30206;DHT22;17010;51.306;3.150;2022-07-23T04:13:56;15.80;99.90
30206;DHT22;17010;51.306;3.150;2022-07-23T04:16:24;15.80;99.90
30206;DHT22;17010;51.306;3.150;2022-07-23T04:18:51;15.80;99.90
30206;DHT22;17010;51.306;3.150;2022-07-23T04:21:17;15.90;99.90
30206;DHT22;17010;51.306;3.150;2022-07-23T04:23:44;15.90;99.90
30206;DHT22;17010;51.306;3.150;2022-07-23T04:26:11;16.00;99.90
30206;DHT22;17010;51.306;3.150;2022-07-23T04:28:39;16.00;99.90
30206;DHT22;17010;51.306;3.150;2022-07-23T04:31:06;16.10;99.90
30206;DHT22;17010;51.306;3.150;2022-07-23T04:33:32;16.10;99.90
30206;DHT22;17010;51.306;3.150;2022-07-23T04:35:58;16.10;99.90
30206;DHT22;17010;51.306;3.150;2022-07-23T04:38:27;16.10;99.90
30206;DHT22;17010;51.306;3.150;2022-07-23T04:40:56;16.10;99.90
30206;DHT22;17010;51.306;3.150;2022-07-23T04:43:22;16.00;99.90
30206;DHT22;17010;51.306;3.150;2022-07-23T04:45:49;16.00;99.90
30206;DHT22;17010;51.306;3.150;2022-07-23T04:48:15;16.10;99.90
30206;DHT22;17010;51.306;3.150;2022-07-23T04:50:42;16.20;99.90
30206;DHT22;17010;51.306;3.150;2022-07-23T04:53:10;16.30;99.90
30206;DHT22;17010;51.306;3.150;2022-07-23T04:55:36;16.30;99.90
30206;DHT22;17010;51.306;3.150;2022-07-23T04:58:05;16.40;99.90
30206;DHT22;17010;51.306;3.150;2022-07-23T05:00:32;16.50;99.90
30206;DHT22;17010;51.306;3.150;2022-07-23T05:02:58;16.60;99.90
30206;DHT22;17010;51.306;3.150;2022-07-23T05:05:27;16.70;99.90
30206;DHT22;17010;51.306;3.150;2022-07-23T05:07:53;16.90;99.90
30206;DHT22;17010;51.306;3.150;2022-07-23T05:10:19;17.00;99.90
30206;DHT22;17010;51.306;3.150;2022-07-23T05:12:46;17.00;99.90
30206;DHT22;17010;51.306;3.150;2022-07-23T05:15:13;17.10;99.90
30206;DHT22;17010;51.306;3.150;2022-07-23T05:17:39;17.10;99.90
30206;DHT22;17010;51.306;3.150;2022-07-23T05:20:06;17.20;99.90
30206;DHT22;17010;51.306;3.150;2022-07-23T05:22:32;17.30;99.90
30206;DHT22;17010;51.306;3.150;2022-07-23T05:25:01;17.50;99.90
30206;DHT22;17010;51.306;3.150;2022-07-23T05:27:27;17.60;99.90
30206;DHT22;17010;51.306;3.150;2022-07-23T05:29:54;17.70;99.90
30206;DHT22;17010;51.306;3.150;2022-07-23T05:32:23;17.80;99.90
30206;DHT22;17010;51.306;3.150;2022-07-23T05:34:52;18.10;99.90
30206;DHT22;17010;51.306;3.150;2022-07-23T05:37:21;18.40;99.90
30206;DHT22;17010;51.306;3.150;2022-07-23T05:39:47;18.60;99.90
30206;DHT22;17010;51.306;3.150;2022-07-23T05:42:13;18.70;99.90
30206;DHT22;17010;51.306;3.150;2022-07-23T05:44:42;18.70;99.90
30206;DHT22;17010;51.306;3.150;2022-07-23T05:47:08;18.70;99.90
30206;DHT22;17010;51.306;3.150;2022-07-23T05:49:37;18.70;99.90
30206;DHT22;17010;51.306;3.150;2022-07-23T05:52:07;18.70;99.90
30206;DHT22;17010;51.306;3.150;2022-07-23T05:54:38;18.80;99.90
30206;DHT22;17010;51.306;3.150;2022-07-23T05:57:07;18.80;99.90
30206;DHT22;17010;51.306;3.150;2022-07-23T05:59:33;18.80;99.90
30206;DHT22;17010;51.306;3.150;2022-07-23T06:02:00;18.70;99.90
30206;DHT22;17010;51.306;3.150;2022-07-23T06:04:28;18.80;99.90
30206;DHT22;17010;51.306;3.150;2022-07-23T06:06:54;18.70;99.90
30206;DHT22;17010;51.306;3.150;2022-07-23T06:09:21;18.80;99.90
30206;DHT22;17010;51.306;3.150;2022-07-23T06:11:47;18.80;99.90
30206;DHT22;17010;51.306;3.150;2022-07-23T06:14:14;19.10;99.90
30206;DHT22;17010;51.306;3.150;2022-07-23T06:16:43;19.30;99.90
30206;DHT22;17010;51.306;3.150;2022-07-23T06:19:11;19.70;99.90
30206;DHT22;17010;51.306;3.150;2022-07-23T06:21:40;20.20;99.90
30206;DHT22;17010;51.306;3.150;2022-07-23T06:24:07;20.50;99.90
30206;DHT22;17010;51.306;3.150;2022-07-23T06:26:33;20.50;99.90
30206;DHT22;17010;51.306;3.150;2022-07-23T06:28:59;20.50;99.90
30206;DHT22;17010;51.306;3.150;2022-07-23T06:31:26;20.60;99.90
30206;DHT22;17010;51.306;3.150;2022-07-23T06:33:52;20.70;99.90
30206;DHT22;17010;51.306;3.150;2022-07-23T06:36:18;21.10;99.90
30206;DHT22;17010;51.306;3.150;2022-07-23T06:38:47;21.20;99.90
30206;DHT22;17010;51.306;3.150;2022-07-23T06:41:13;21.50;99.90
30206;DHT22;17010;51.306;3.150;2022-07-23T06:43:43;21.80;99.90
30206;DHT22;17010;51.306;3.150;2022-07-23T06:46:09;22.10;99.90
30206;DHT22;17010;51.306;3.150;2022-07-23T06:48:37;22.40;99.90
30206;DHT22;17010;51.306;3.150;2022-07-23T06:51:04;22.80;99.90
30206;DHT22;17010;51.306;3.150;2022-07-23T06:53:31;23.10;99.90
30206;DHT22;17010;51.306;3.150;2022-07-23T06:55:57;23.00;99.90
30206;DHT22;17010;51.306;3.150;2022-07-23T06:58:25;22.80;99.90
30206;DHT22;17010;51.306;3.150;2022-07-23T07:00:54;22.60;99.90
30206;DHT22;17010;51.306;3.150;2022-07-23T07:03:22;22.50;99.90
30206;DHT22;17010;51.306;3.150;2022-07-23T07:05:49;22.70;99.90
30206;DHT22;17010;51.306;3.150;2022-07-23T07:08:18;23.00;99.90
30206;DHT22;17010;51.306;3.150;2022-07-23T07:10:47;23.40;99.90
30206;DHT22;17010;51.306;3.150;2022-07-23T07:13:14;23.90;99.90
30206;DHT22;17010;51.306;3.150;2022-07-23T07:15:40;23.60;99.90
30206;DHT22;17010;51.306;3.150;2022-07-23T07:18:06;23.30;99.90
30206;DHT22;17010;51.306;3.150;2022-07-23T07:20:33;23.30;99.90
30206;DHT22;17010;51.306;3.150;2022-07-23T07:22:59;23.30;99.90
30206;DHT22;17010;51.306;3.150;2022-07-23T07:25:25;23.50;99.90
30206;DHT22;17010;51.306;3.150;2022-07-23T07:27:52;23.70;99.90
30206;DHT22;17010;51.306;3.150;2022-07-23T07:30:21;24.10;99.90
30206;DHT22;17010;51.306;3.150;2022-07-23T07:32:47;24.60;99.90
30206;DHT22;17010;51.306;3.150;2022-07-23T07:35:13;25.00;99.90
30206;DHT22;17010;51.306;3.150;2022-07-23T07:37:42;25.40;99.90
30206;DHT22;17010;51.306;3.150;2022-07-23T07:40:08;25.60;99.90
30206;DHT22;17010;51.306;3.150;2022-07-23T07:42:43;25.70;99.90
30206;DHT22;17010;51.306;3.150;2022-07-23T07:45:10;26.10;99.90
30206;DHT22;17010;51.306;3.150;2022-07-23T07:47:36;26.70;99.90
30206;DHT22;17010;51.306;3.150;2022-07-23T07:50:09;26.70;99.90
30206;DHT22;17010;51.306;3.150;2022-07-23T07:52:36;27.30;99.90
30206;DHT22;17010;51.306;3.150;2022-07-23T07:55:07;27.70;99.90
30206;DHT22;17010;51.306;3.150;2022-07-23T07:57:34;28.00;99.90
30206;DHT22;17010;51.306;3.150;2022-07-23T08:00:01;28.60;99.90
30206;DHT22;17010;51.306;3.150;2022-07-23T08:02:27;29.00;99.90
30206;DHT22;17010;51.306;3.150;2022-07-23T08:04:55;29.60;99.90
30206;DHT22;17010;51.306;3.150;2022-07-23T08:07:23;30.20;99.90
30206;DHT22;17010;51.306;3.150;2022-07-23T08:09:49;30.80;99.90
30206;DHT22;17010;51.306;3.150;2022-07-23T08:12:17;31.00;99.90
30206;DHT22;17010;51.306;3.150;2022-07-23T08:14:46;30.50;99.90
30206;DHT22;17010;51.306;3.150;2022-07-23T08:17:15;30.40;99.90
30206;DHT22;17010;51.306;3.150;2022-07-23T08:19:41;30.60;99.90
30206;DHT22;17010;51.306;3.150;2022-07-23T08:22:08;30.60;99.90
30206;DHT22;17010;51.306;3.150;2022-07-23T08:24:36;30.60;99.90
30206;DHT22;17010;51.306;3.150;2022-07-23T08:27:04;30.80;99.90
30206;DHT22;17010;51.306;3.150;2022-07-23T08:29:30;31.00;99.90
30206;DHT22;17010;51.306;3.150;2022-07-23T08:31:59;31.10;99.90
30206;DHT22;17010;51.306;3.150;2022-07-23T08:34:25;31.20;99.90
30206;DHT22;17010;51.306;3.150;2022-07-23T08:36:56;31.30;99.90
30206;DHT22;17010;51.306;3.150;2022-07-23T08:39:22;31.60;99.90
30206;DHT22;17010;51.306;3.150;2022-07-23T08:41:49;32.10;99.90
30206;DHT22;17010;51.306;3.150;2022-07-23T08:44:18;32.70;99.90
30206;DHT22;17010;51.306;3.150;2022-07-23T08:46:45;32.80;99.90
30206;DHT22;17010;51.306;3.150;2022-07-23T08:49:12;32.80;99.90
30206;DHT22;17010;51.306;3.150;2022-07-23T08:51:39;32.60;99.90
30206;DHT22;17010;51.306;3.150;2022-07-23T08:54:06;32.60;99.90
30206;DHT22;17010;51.306;3.150;2022-07-23T08:56:32;32.50;99.90
30206;DHT22;17010;51.306;3.150;2022-07-23T08:58:58;32.80;99.90
30206;DHT22;17010;51.306;3.150;2022-07-23T09:01:24;33.50;99.90
30206;DHT22;17010;51.306;3.150;2022-07-23T09:03:51;34.10;99.90
30206;DHT22;17010;51.306;3.150;2022-07-23T09:06:17;34.50;99.90
30206;DHT22;17010;51.306;3.150;2022-07-23T09:08:44;34.60;99.90
30206;DHT22;17010;51.306;3.150;2022-07-23T09:11:15;34.90;99.90
30206;DHT22;17010;51.306;3.150;2022-07-23T09:13:51;34.90;99.70
30206;DHT22;17010;51.306;3.150;2022-07-23T09:16:24;34.70;99.90
30206;DHT22;17010;51.306;3.150;2022-07-23T09:18:56;34.60;99.90
30206;DHT22;17010;51.306;3.150;2022-07-23T09:21:29;34.60;99.90
30206;DHT22;17010;51.306;3.150;2022-07-23T09:24:01;35.10;99.60
30206;DHT22;17010;51.306;3.150;2022-07-23T09:26:33;35.00;98.20
30206;DHT22;17010;51.306;3.150;2022-07-23T09:29:29;35.10;98.30
30206;DHT22;17010;51.306;3.150;2022-07-23T09:32:01;34.90;99.10
30206;DHT22;17010;51.306;3.150;2022-07-23T09:34:35;34.80;99.20
30206;DHT22;17010;51.306;3.150;2022-07-23T09:37:14;34.70;98.20
30206;DHT22;17010;51.306;3.150;2022-07-23T09:39:41;34.50;98.90
30206;DHT22;17010;51.306;3.150;2022-07-23T09:42:19;33.40;98.80
30206;DHT22;17010;51.306;3.150;2022-07-23T09:44:54;32.00;99.40
30206;DHT22;17010;51.306;3.150;2022-07-23T09:47:21;30.60;99.90
30206;DHT22;17010;51.306;3.150;2022-07-23T09:52:27;28.70;99.90
30206;DHT22;17010;51.306;3.150;2022-07-23T09:54:58;27.90;99.90
30206;DHT22;17010;51.306;3.150;2022-07-23T09:57:25;27.50;99.90
30206;DHT22;17010;51.306;3.150;2022-07-23T09:59:57;27.10;99.90
30206;DHT22;17010;51.306;3.150;2022-07-23T10:02:23;27.00;99.90
30206;DHT22;17010;51.306;3.150;2022-07-23T10:04:52;27.40;99.90
30206;DHT22;17010;51.306;3.150;2022-07-23T10:07:19;27.50;99.90
30206;DHT22;17010;51.306;3.150;2022-07-23T10:09:50;27.50;99.90
30206;DHT22;17010;51.306;3.150;2022-07-23T10:12:20;27.30;99.90
30206;DHT22;17010;51.306;3.150;2022-07-23T10:15:01;27.10;99.90
30206;DHT22;17010;51.306;3.150;2022-07-23T10:17:28;27.40;99.90
30206;DHT22;17010;51.306;3.150;2022-07-23T10:20:01;27.50;99.90
30206;DHT22;17010;51.306;3.150;2022-07-23T10:22:35;28.00;99.90
30206;DHT22;17010;51.306;3.150;2022-07-23T10:30:43;29.40;99.90
30206;DHT22;17010;51.306;3.150;2022-07-23T10:33:37;29.30;99.90
30206;DHT22;17010;51.306;3.150;2022-07-23T10:36:12;29.20;99.90
30206;DHT22;17010;51.306;3.150;2022-07-23T10:38:54;29.50;99.90
30206;DHT22;17010;51.306;3.150;2022-07-23T10:41:35;29.20;99.90
30206;DHT22;17010;51.306;3.150;2022-07-23T10:44:11;28.80;99.90
30206;DHT22;17010;51.306;3.150;2022-07-23T10:47:07;29.00;99.90
30206;DHT22;17010;51.306;3.150;2022-07-23T10:49:39;28.60;99.90
30206;DHT22;17010;51.306;3.150;2022-07-23T10:52:24;28.40;99.90
30206;DHT22;17010;51.306;3.150;2022-07-23T10:57:25;29.20;99.90
30206;DHT22;17010;51.306;3.150;2022-07-23T11:02:35;30.00;99.90
30206;DHT22;17010;51.306;3.150;2022-07-23T11:05:09;30.90;99.90
30206;DHT22;17010;51.306;3.150;2022-07-23T11:07:39;30.80;99.90
30206;DHT22;17010;51.306;3.150;2022-07-23T11:10:49;30.60;99.90
30206;DHT22;17010;51.306;3.150;2022-07-23T11:18:55;30.80;99.90
30206;DHT22;17010;51.306;3.150;2022-07-23T11:24:04;31.30;99.90
30206;DHT22;17010;51.306;3.150;2022-07-23T11:32:02;29.50;99.90
30206;DHT22;17010;51.306;3.150;2022-07-23T11:36:54;29.80;99.90
30206;DHT22;17010;51.306;3.150;2022-07-23T11:39:21;30.60;99.90
30206;DHT22;17010;51.306;3.150;2022-07-23T11:41:51;30.80;99.90
30206;DHT22;17010;51.306;3.150;2022-07-23T11:44:33;30.60;99.90
30206;DHT22;17010;51.306;3.150;2022-07-23T11:47:00;30.40;99.90
30206;DHT22;17010;51.306;3.150;2022-07-23T11:49:29;30.60;99.90
30206;DHT22;17010;51.306;3.150;2022-07-23T11:52:13;30.90;99.90
30206;DHT22;17010;51.306;3.150;2022-07-23T11:54:51;31.30;99.90
30206;DHT22;17010;51.306;3.150;2022-07-23T11:57:19;32.00;99.90
30206;DHT22;17010;51.306;3.150;2022-07-23T11:59:47;32.60;99.90
30206;DHT22;17010;51.306;3.150;2022-07-23T12:02:15;32.30;99.90
30206;DHT22;17010;51.306;3.150;2022-07-23T12:04:46;31.50;99.90
30206;DHT22;17010;51.306;3.150;2022-07-23T12:07:39;30.90;99.90
30206;DHT22;17010;51.306;3.150;2022-07-23T12:10:47;30.60;99.90
30206;DHT22;17010;51.306;3.150;2022-07-23T12:13:18;30.10;99.90
30206;DHT22;17010;51.306;3.150;2022-07-23T12:15:53;30.40;99.90
30206;DHT22;17010;51.306;3.150;2022-07-23T12:18:24;30.50;99.90
30206;DHT22;17010;51.306;3.150;2022-07-23T12:20:55;30.60;99.90
30206;DHT22;17010;51.306;3.150;2022-07-23T12:23:24;30.30;99.90
30206;DHT22;17010;51.306;3.150;2022-07-23T12:25:51;30.60;99.90
30206;DHT22;17010;51.306;3.150;2022-07-23T12:28:29;30.80;99.90
30206;DHT22;17010;51.306;3.150;2022-07-23T12:30:57;30.70;99.90
30206;DHT22;17010;51.306;3.150;2022-07-23T12:33:42;30.80;99.90
30206;DHT22;17010;51.306;3.150;2022-07-23T12:36:09;30.50;99.90
30206;DHT22;17010;51.306;3.150;2022-07-23T12:38:43;29.90;99.90
30206;DHT22;17010;51.306;3.150;2022-07-23T12:41:09;29.50;99.90
30206;DHT22;17010;51.306;3.150;2022-07-23T12:43:38;29.40;99.90
30206;DHT22;17010;51.306;3.150;2022-07-23T12:46:10;29.70;99.90
30206;DHT22;17010;51.306;3.150;2022-07-23T12:51:17;29.60;99.90
30206;DHT22;17010;51.306;3.150;2022-07-23T12:53:55;29.50;99.90
30206;DHT22;17010;51.306;3.150;2022-07-23T12:56:38;29.10;99.90
30206;DHT22;17010;51.306;3.150;2022-07-23T12:59:10;28.90;99.90
30206;DHT22;17010;51.306;3.150;2022-07-23T13:01:41;28.80;99.90
30206;DHT22;17010;51.306;3.150;2022-07-23T13:04:16;28.90;99.90
30206;DHT22;17010;51.306;3.150;2022-07-23T13:06:49;29.00;99.90
30206;DHT22;17010;51.306;3.150;2022-07-23T13:09:21;28.70;99.90
30206;DHT22;17010;51.306;3.150;2022-07-23T13:11:48;28.40;99.90
30206;DHT22;17010;51.306;3.150;2022-07-23T13:14:16;28.50;99.90
30206;DHT22;17010;51.306;3.150;2022-07-23T13:16:44;28.50;99.90
30206;DHT22;17010;51.306;3.150;2022-07-23T13:19:11;28.40;99.90
30206;DHT22;17010;51.306;3.150;2022-07-23T13:21:49;28.40;99.90
30206;DHT22;17010;51.306;3.150;2022-07-23T13:24:15;28.40;99.90
30206;DHT22;17010;51.306;3.150;2022-07-23T13:26:43;28.40;99.90
30206;DHT22;17010;51.306;3.150;2022-07-23T13:29:12;28.20;99.90
30206;DHT22;17010;51.306;3.150;2022-07-23T13:31:38;28.00;99.90
30206;DHT22;17010;51.306;3.150;2022-07-23T13:34:05;27.90;99.90
30206;DHT22;17010;51.306;3.150;2022-07-23T13:36:31;27.60;99.90
30206;DHT22;17010;51.306;3.150;2022-07-23T13:38:58;27.00;99.90
30206;DHT22;17010;51.306;3.150;2022-07-23T13:41:24;26.60;99.90
30206;DHT22;17010;51.306;3.150;2022-07-23T13:43:50;26.50;99.90
30206;DHT22;17010;51.306;3.150;2022-07-23T13:46:18;26.30;99.90
30206;DHT22;17010;51.306;3.150;2022-07-23T13:48:44;26.30;99.90
30206;DHT22;17010;51.306;3.150;2022-07-23T13:51:15;26.00;99.90
30206;DHT22;17010;51.306;3.150;2022-07-23T13:53:47;26.10;99.90
30206;DHT22;17010;51.306;3.150;2022-07-23T13:56:14;26.20;99.90
30206;DHT22;17010;51.306;3.150;2022-07-23T13:58:40;26.20;99.90
30206;DHT22;17010;51.306;3.150;2022-07-23T14:01:07;26.10;99.90
30206;DHT22;17010;51.306;3.150;2022-07-23T14:03:33;26.10;99.90
30206;DHT22;17010;51.306;3.150;2022-07-23T14:06:00;26.10;99.90
30206;DHT22;17010;51.306;3.150;2022-07-23T14:08:28;26.10;99.90
30206;DHT22;17010;51.306;3.150;2022-07-23T14:10:55;26.00;99.90
30206;DHT22;17010;51.306;3.150;2022-07-23T14:13:21;26.00;99.90
30206;DHT22;17010;51.306;3.150;2022-07-23T14:15:47;26.10;99.90
30206;DHT22;17010;51.306;3.150;2022-07-23T14:18:14;26.00;99.90
30206;DHT22;17010;51.306;3.150;2022-07-23T14:20:43;25.90;99.90
30206;DHT22;17010;51.306;3.150;2022-07-23T14:23:14;26.00;99.90
30206;DHT22;17010;51.306;3.150;2022-07-23T14:25:40;26.10;99.90
30206;DHT22;17010;51.306;3.150;2022-07-23T14:28:06;26.00;99.90
30206;DHT22;17010;51.306;3.150;2022-07-23T14:30:33;25.80;99.90
30206;DHT22;17010;51.306;3.150;2022-07-23T14:33:02;25.60;99.90
30206;DHT22;17010;51.306;3.150;2022-07-23T14:35:28;25.40;99.90
30206;DHT22;17010;51.306;3.150;2022-07-23T14:37:54;25.50;99.90
30206;DHT22;17010;51.306;3.150;2022-07-23T14:40:22;25.40;99.90
30206;DHT22;17010;51.306;3.150;2022-07-23T14:42:49;25.30;99.90
30206;DHT22;17010;51.306;3.150;2022-07-23T14:45:15;25.20;99.90
30206;DHT22;17010;51.306;3.150;2022-07-23T14:47:41;25.10;99.90
30206;DHT22;17010;51.306;3.150;2022-07-23T14:50:08;24.90;99.90
30206;DHT22;17010;51.306;3.150;2022-07-23T14:52:35;24.70;99.90
30206;DHT22;17010;51.306;3.150;2022-07-23T14:55:01;24.70;99.90
30206;DHT22;17010;51.306;3.150;2022-07-23T14:57:28;24.60;99.90
30206;DHT22;17010;51.306;3.150;2022-07-23T14:59:56;24.60;99.90
30206;DHT22;17010;51.306;3.150;2022-07-23T15:02:25;24.50;99.90
30206;DHT22;17010;51.306;3.150;2022-07-23T15:04:54;24.50;99.90
30206;DHT22;17010;51.306;3.150;2022-07-23T15:07:20;24.40;99.90
30206;DHT22;17010;51.306;3.150;2022-07-23T15:09:46;24.50;99.90
30206;DHT22;17010;51.306;3.150;2022-07-23T15:12:13;24.50;99.90
30206;DHT22;17010;51.306;3.150;2022-07-23T15:14:39;24.50;99.90
30206;DHT22;17010;51.306;3.150;2022-07-23T15:17:06;24.50;99.90
30206;DHT22;17010;51.306;3.150;2022-07-23T15:19:32;24.50;99.90
30206;DHT22;17010;51.306;3.150;2022-07-23T15:21:58;24.50;99.90
30206;DHT22;17010;51.306;3.150;2022-07-23T15:24:25;24.50;99.90
30206;DHT22;17010;51.306;3.150;2022-07-23T15:26:51;24.40;99.90
30206;DHT22;17010;51.306;3.150;2022-07-23T15:29:18;24.20;99.90
30206;DHT22;17010;51.306;3.150;2022-07-23T15:31:47;24.30;99.90
30206;DHT22;17010;51.306;3.150;2022-07-23T15:34:14;24.40;99.90
30206;DHT22;17010;51.306;3.150;2022-07-23T15:36:41;24.30;99.90
30206;DHT22;17010;51.306;3.150;2022-07-23T15:39:09;24.30;99.90
30206;DHT22;17010;51.306;3.150;2022-07-23T15:41:36;24.40;99.90
30206;DHT22;17010;51.306;3.150;2022-07-23T15:44:02;24.40;99.90
30206;DHT22;17010;51.306;3.150;2022-07-23T15:46:28;24.50;99.90
30206;DHT22;17010;51.306;3.150;2022-07-23T15:48:57;24.60;99.90
30206;DHT22;17010;51.306;3.150;2022-07-23T15:51:23;24.60;99.90
30206;DHT22;17010;51.306;3.150;2022-07-23T15:53:50;24.60;99.90
30206;DHT22;17010;51.306;3.150;2022-07-23T15:56:16;24.50;99.90
30206;DHT22;17010;51.306;3.150;2022-07-23T15:58:43;24.40;99.90
30206;DHT22;17010;51.306;3.150;2022-07-23T16:01:09;24.40;99.90
30206;DHT22;17010;51.306;3.150;2022-07-23T16:03:36;24.20;99.90
30206;DHT22;17010;51.306;3.150;2022-07-23T16:06:05;24.10;99.90
30206;DHT22;17010;51.306;3.150;2022-07-23T16:08:34;24.00;99.90
30206;DHT22;17010;51.306;3.150;2022-07-23T16:11:00;24.00;99.90